createdAt,value
2018-03-19T00:01:17.833Z,15.03
2018-03-19T00:03:45.421Z,15.50
2018-03-19T00:06:13.069Z,14.07
2018-03-19T00:08:40.596Z,14.70
2018-03-19T00:11:08.113Z,17.00
2018-03-19T00:13:35.641Z,15.87
2018-03-19T00:16:03.267Z,15.00
2018-03-19T00:18:30.804Z,16.13
2018-03-19T00:20:58.329Z,19.63
2018-03-19T00:23:26.428Z,13.70
2018-03-19T00:25:54.061Z,13.77
2018-03-19T00:28:21.629Z,12.77
2018-03-19T00:30:49.152Z,14.47
2018-03-19T00:33:16.700Z,12.27
2018-03-19T00:35:44.229Z,16.07
2018-03-19T00:38:11.755Z,11.40
2018-03-19T00:40:39.274Z,15.57
2018-03-19T00:43:06.802Z,13.90
2018-03-19T00:45:34.327Z,20.80
2018-03-19T00:48:01.896Z,15.07
2018-03-19T00:50:29.423Z,13.10
2018-03-19T00:52:56.938Z,15.87
2018-03-19T00:55:24.449Z,13.90
2018-03-19T00:57:51.969Z,16.03
2018-03-19T01:00:19.511Z,16.03
2018-03-19T01:02:47.031Z,17.63
2018-03-19T01:05:14.596Z,15.77
2018-03-19T01:07:42.122Z,18.33
2018-03-19T01:10:09.654Z,15.97
2018-03-19T01:12:37.172Z,18.93
2018-03-19T01:15:04.688Z,14.77
2018-03-19T01:17:32.210Z,18.03
2018-03-19T01:19:59.732Z,13.83
2018-03-19T01:22:27.265Z,18.27
2018-03-19T01:24:54.872Z,14.37
2018-03-19T01:27:22.405Z,17.80
2018-03-19T01:29:49.944Z,17.73
2018-03-19T01:32:17.502Z,17.10
2018-03-19T01:34:45.023Z,17.30
2018-03-19T01:37:12.576Z,16.07
2018-03-19T01:39:40.092Z,15.50
2018-03-19T01:42:07.631Z,18.20
2018-03-19T01:44:35.269Z,13.47
2018-03-19T01:47:02.788Z,17.37
2018-03-19T01:49:30.337Z,22.53
2018-03-19T01:51:57.865Z,18.63
2018-03-19T01:54:25.378Z,16.53
2018-03-19T01:56:52.898Z,35.83
2018-03-19T01:59:20.406Z,17.33
2018-03-19T02:01:47.981Z,19.90
2018-03-19T02:04:15.511Z,16.80
2018-03-19T02:06:43.045Z,16.77
2018-03-19T02:09:10.576Z,23.70
2018-03-19T02:11:38.089Z,18.70
2018-03-19T02:14:05.623Z,19.57
2018-03-19T02:16:33.180Z,16.10
2018-03-19T02:19:00.741Z,15.37
2018-03-19T02:21:28.369Z,19.17
2018-03-19T02:23:55.885Z,18.40
2018-03-19T02:26:23.424Z,22.13
2018-03-19T02:28:50.961Z,16.37
2018-03-19T02:31:18.481Z,19.77
2018-03-19T02:33:46.066Z,16.80
2018-03-19T02:36:13.749Z,17.97
2018-03-19T02:38:41.381Z,19.40
2018-03-19T02:41:08.910Z,14.27
2018-03-19T02:43:36.441Z,20.93
2018-03-19T02:46:03.966Z,18.43
2018-03-19T02:48:31.528Z,19.13
2018-03-19T02:50:59.044Z,20.30
2018-03-19T02:53:26.647Z,18.20
2018-03-19T02:55:54.167Z,15.40
2018-03-19T02:58:21.696Z,14.80
2018-03-19T03:00:49.331Z,18.67
2018-03-19T03:03:16.855Z,19.57
2018-03-19T03:05:44.383Z,17.77
2018-03-19T03:08:11.910Z,17.43
2018-03-19T03:10:39.430Z,20.93
2018-03-19T03:13:06.957Z,21.13
2018-03-19T03:15:34.581Z,18.83
2018-03-19T03:18:02.153Z,18.47
2018-03-19T03:20:29.669Z,21.10
2018-03-19T03:22:57.225Z,21.67
2018-03-19T03:25:24.754Z,18.50
2018-03-19T03:27:52.287Z,18.23
2018-03-19T03:30:19.950Z,18.37
2018-03-19T03:32:47.470Z,21.77
2018-03-19T03:35:15.000Z,18.43
2018-03-19T03:37:42.626Z,16.73
2018-03-19T03:40:10.152Z,16.30
2018-03-19T03:42:37.740Z,13.83
2018-03-19T03:45:05.303Z,18.53
2018-03-19T03:47:32.857Z,21.03
2018-03-19T03:50:00.391Z,19.37
2018-03-19T03:52:27.913Z,24.00
2018-03-19T03:54:55.442Z,14.30
2018-03-19T03:57:22.965Z,20.57
2018-03-19T03:59:50.485Z,18.97
2018-03-19T04:02:18.127Z,18.17
2018-03-19T04:04:45.673Z,18.17
2018-03-19T04:07:13.208Z,17.07
2018-03-19T04:09:40.727Z,16.90
2018-03-19T04:12:08.258Z,20.50
2018-03-19T04:14:35.784Z,17.93
2018-03-19T04:17:03.303Z,19.00
2018-03-19T04:19:30.817Z,17.37
2018-03-19T04:21:58.363Z,18.37
2018-03-19T04:24:25.941Z,15.90
2018-03-19T04:26:53.461Z,16.47
2018-03-19T04:29:20.998Z,16.27
2018-03-19T04:31:48.633Z,20.40
2018-03-19T04:34:16.158Z,19.77
2018-03-19T04:36:43.681Z,19.77
2018-03-19T04:39:11.359Z,22.37
2018-03-19T04:41:38.977Z,17.70
2018-03-19T04:44:06.503Z,20.00
2018-03-19T04:46:34.048Z,18.43
2018-03-19T04:49:01.581Z,20.40
2018-03-19T04:51:29.116Z,18.70
2018-03-19T04:53:56.637Z,21.37
2018-03-19T04:56:24.172Z,16.77
2018-03-19T04:58:51.706Z,21.90
2018-03-19T05:01:19.250Z,17.40
2018-03-19T05:03:46.782Z,18.80
2018-03-19T05:06:14.310Z,19.87
2018-03-19T05:08:41.853Z,17.83
2018-03-19T05:11:09.399Z,16.20
2018-03-19T05:13:37.047Z,19.13
2018-03-19T05:16:04.561Z,17.77
2018-03-19T05:18:32.094Z,19.03
2018-03-19T05:20:59.732Z,18.03
2018-03-19T05:23:27.249Z,20.07
2018-03-19T05:25:54.795Z,16.73
2018-03-19T05:28:22.320Z,16.53
2018-03-19T05:30:49.963Z,20.13
2018-03-19T05:33:17.537Z,16.47
2018-03-19T05:35:45.056Z,19.73
2018-03-19T05:38:12.576Z,12.03
2018-03-19T05:40:40.108Z,21.27
2018-03-19T05:43:07.657Z,20.63
2018-03-19T05:45:35.186Z,20.13
2018-03-19T05:48:02.716Z,22.77
2018-03-19T05:50:30.244Z,21.57
2018-03-19T05:52:57.774Z,20.23
2018-03-19T05:55:25.302Z,16.93
2018-03-19T05:57:52.831Z,20.70
2018-03-19T06:00:20.341Z,26.30
2018-03-19T06:02:47.901Z,17.13
2018-03-19T06:05:15.530Z,18.13
2018-03-19T06:07:43.066Z,17.93
2018-03-19T06:10:10.597Z,17.07
2018-03-19T06:12:38.133Z,19.67
2018-03-19T06:15:05.678Z,19.33
2018-03-19T06:17:33.206Z,20.00
2018-03-19T06:20:00.746Z,20.43
2018-03-19T06:22:28.338Z,18.90
2018-03-19T06:24:55.863Z,22.00
2018-03-19T06:27:23.449Z,21.13
2018-03-19T06:29:50.969Z,21.13
2018-03-19T06:32:18.530Z,20.67
2018-03-19T06:34:46.098Z,18.93
2018-03-19T06:37:13.621Z,19.10
2018-03-19T06:39:41.143Z,25.17
2018-03-19T06:42:08.687Z,18.10
2018-03-19T06:44:36.230Z,18.20
2018-03-19T06:47:03.834Z,21.47
2018-03-19T06:49:31.348Z,19.63
2018-03-19T06:51:58.873Z,21.37
2018-03-19T06:54:26.409Z,18.17
2018-03-19T06:56:53.935Z,18.67
2018-03-19T06:59:21.466Z,20.57
2018-03-19T07:01:49.088Z,14.63
2018-03-19T07:04:16.617Z,16.93
2018-03-19T07:06:44.208Z,13.43
2018-03-19T07:09:11.740Z,17.17
2018-03-19T07:11:39.290Z,14.37
2018-03-19T07:14:06.815Z,17.73
2018-03-19T07:16:34.370Z,13.37
2018-03-19T07:19:01.905Z,10.13
2018-03-19T07:21:29.465Z,15.50
2018-03-19T07:23:57.025Z,12.80
2018-03-19T07:26:24.551Z,13.67
2018-03-19T07:28:52.374Z,13.53
2018-03-19T07:31:19.911Z,14.93
2018-03-19T07:33:47.439Z,16.30
2018-03-19T07:36:14.954Z,15.17
2018-03-19T07:38:42.486Z,16.47
2018-03-19T07:41:10.012Z,12.27
2018-03-19T07:43:37.605Z,12.33
2018-03-19T07:46:05.139Z,14.20
2018-03-19T07:48:32.656Z,13.20
2018-03-19T07:51:00.184Z,13.57
2018-03-19T07:53:27.725Z,15.77
2018-03-19T07:55:55.238Z,13.53
2018-03-19T07:58:22.759Z,13.77
2018-03-19T08:00:50.290Z,15.10
2018-03-19T08:03:17.880Z,18.57
2018-03-19T08:05:45.438Z,13.50
2018-03-19T08:08:12.999Z,15.70
2018-03-19T08:10:40.529Z,13.40
2018-03-19T08:13:08.052Z,20.50
2018-03-19T08:15:35.677Z,13.63
2018-03-19T08:18:03.345Z,14.63
2018-03-19T08:20:30.871Z,8.93
2018-03-19T08:22:58.432Z,18.57
2018-03-19T08:25:26.019Z,15.30
2018-03-19T08:27:53.549Z,12.30
2018-03-19T08:30:21.062Z,13.10
2018-03-19T08:32:48.565Z,15.23
2018-03-19T08:35:16.162Z,12.00
2018-03-19T08:37:43.706Z,11.57
2018-03-19T08:40:11.246Z,9.20
2018-03-19T08:42:38.805Z,10.07
2018-03-19T08:45:06.331Z,11.87
2018-03-19T08:47:33.843Z,9.17
2018-03-19T08:50:01.383Z,12.33
2018-03-19T08:52:28.941Z,9.33
2018-03-19T08:54:56.559Z,11.00
2018-03-19T08:57:24.090Z,11.17
2018-03-19T08:59:51.621Z,9.30
2018-03-19T09:02:19.210Z,14.83
2018-03-19T09:04:46.736Z,8.93
2018-03-19T09:07:14.267Z,11.10
2018-03-19T09:09:41.779Z,9.20
2018-03-19T09:12:09.301Z,13.27
2018-03-19T09:14:36.822Z,7.83
2018-03-19T09:17:04.369Z,8.70
2018-03-19T09:19:31.881Z,6.90
2018-03-19T09:21:59.411Z,9.20
2018-03-19T09:24:27.033Z,9.27
2018-03-19T09:26:54.538Z,8.37
2018-03-19T09:29:22.156Z,9.27
2018-03-19T09:31:49.713Z,10.50
2018-03-19T09:34:17.290Z,9.23
2018-03-19T09:36:44.828Z,8.63
2018-03-19T09:39:12.337Z,8.90
2018-03-19T09:41:39.979Z,9.93
2018-03-19T09:44:07.504Z,6.67
2018-03-19T09:46:35.021Z,9.53
2018-03-19T09:49:02.541Z,6.77
2018-03-19T09:51:30.077Z,8.63
2018-03-19T09:53:57.595Z,9.53
2018-03-19T09:56:25.800Z,9.73
2018-03-19T09:58:53.301Z,8.27
2018-03-19T10:01:20.821Z,9.43
2018-03-19T10:03:48.344Z,7.63
2018-03-19T10:06:16.014Z,7.00
2018-03-19T10:08:43.517Z,8.17
2018-03-19T10:11:11.016Z,8.83
2018-03-19T10:13:38.652Z,8.27
2018-03-19T10:16:06.175Z,6.50
2018-03-19T10:18:33.757Z,5.97
2018-03-19T10:21:01.267Z,8.80
2018-03-19T10:23:28.777Z,7.13
2018-03-19T10:25:56.291Z,7.60
2018-03-19T10:28:23.810Z,7.50
2018-03-19T10:30:51.370Z,7.40
2018-03-19T10:33:18.901Z,7.33
2018-03-19T10:35:46.480Z,7.03
2018-03-19T10:38:14.024Z,9.63
2018-03-19T10:40:41.533Z,6.33
2018-03-19T10:43:09.168Z,8.87
2018-03-19T10:45:36.685Z,7.80
2018-03-19T10:48:04.213Z,9.20
2018-03-19T10:50:31.729Z,7.07
2018-03-19T10:52:59.359Z,7.67
2018-03-19T10:55:26.864Z,8.07
2018-03-19T10:57:55.097Z,8.97
2018-03-19T11:00:22.613Z,7.63
2018-03-19T11:03:09.922Z,7.70
2018-03-19T11:05:43.042Z,5.90
2018-03-19T11:08:10.573Z,7.43
2018-03-19T11:10:38.131Z,7.80
2018-03-19T11:13:05.682Z,6.77
2018-03-19T11:15:33.198Z,6.90
2018-03-19T11:18:00.741Z,8.43
2018-03-19T11:20:28.260Z,9.17
2018-03-19T11:22:55.862Z,7.70
2018-03-19T11:25:23.382Z,8.03
2018-03-19T11:27:50.888Z,8.37
2018-03-19T11:30:18.406Z,6.70
2018-03-19T11:32:45.924Z,10.47
2018-03-19T11:35:13.446Z,8.13
2018-03-19T11:37:40.959Z,5.80
2018-03-19T11:40:08.469Z,7.50
2018-03-19T11:42:36.095Z,6.47
2018-03-19T11:45:03.627Z,7.83
2018-03-19T11:47:31.139Z,7.90
2018-03-19T11:49:58.661Z,10.40
2018-03-19T11:52:26.242Z,6.77
2018-03-19T11:54:53.756Z,7.03
2018-03-19T11:57:21.268Z,6.27
2018-03-19T11:59:48.790Z,7.77
2018-03-19T12:02:16.302Z,6.30
2018-03-19T12:04:43.824Z,6.33
2018-03-19T12:07:11.348Z,5.40
2018-03-19T12:09:38.878Z,10.43
2018-03-19T12:12:06.522Z,7.53
2018-03-19T12:14:34.056Z,7.00
2018-03-19T12:17:01.562Z,8.53
2018-03-19T12:19:29.082Z,6.50
2018-03-19T12:21:56.609Z,6.30
2018-03-19T12:24:24.138Z,9.93
2018-03-19T12:26:51.648Z,7.13
2018-03-19T12:29:19.240Z,6.13
2018-03-19T12:31:46.769Z,8.47
2018-03-19T12:34:14.314Z,6.27
2018-03-19T12:36:41.859Z,7.60
2018-03-19T12:39:09.549Z,8.40
2018-03-19T12:41:37.065Z,8.07
2018-03-19T12:44:04.575Z,7.90
2018-03-19T12:46:32.159Z,11.00
2018-03-19T12:48:59.685Z,7.23
2018-03-19T12:51:30.904Z,7.10
2018-03-19T12:53:58.440Z,9.83
2018-03-19T12:56:25.958Z,8.40
2018-03-19T12:58:53.487Z,9.63
2018-03-19T13:01:21.010Z,9.77
2018-03-19T13:03:48.536Z,9.63
2018-03-19T13:06:16.119Z,7.83
2018-03-19T13:08:43.644Z,8.90
2018-03-19T13:11:11.165Z,11.10
2018-03-19T13:13:38.678Z,12.57
2018-03-19T13:16:06.186Z,6.07
2018-03-19T13:18:33.701Z,8.27
2018-03-19T13:21:01.236Z,8.90
2018-03-19T13:23:28.742Z,7.50
2018-03-19T13:25:56.257Z,7.93
2018-03-19T13:28:23.781Z,9.20
2018-03-19T13:30:51.313Z,9.97
2018-03-19T13:33:18.881Z,8.47
2018-03-19T13:35:46.402Z,7.67
2018-03-19T13:38:13.930Z,7.67
2018-03-19T13:40:41.501Z,7.67
2018-03-19T13:43:09.060Z,7.03
2018-03-19T13:45:36.578Z,8.37
2018-03-19T13:48:04.112Z,7.80
2018-03-19T13:50:31.632Z,9.07
2018-03-19T13:52:59.183Z,7.13
2018-03-19T13:55:26.701Z,7.80
2018-03-19T13:57:54.236Z,13.57
2018-03-19T14:00:21.766Z,7.47
2018-03-19T14:02:49.386Z,8.40
2018-03-19T14:05:16.902Z,6.90
2018-03-19T14:07:44.411Z,11.13
2018-03-19T14:10:11.962Z,8.17
2018-03-19T14:12:39.473Z,7.70
2018-03-19T14:15:06.989Z,6.90
2018-03-19T14:17:34.499Z,6.87
2018-03-19T14:20:02.088Z,9.93
2018-03-19T14:22:29.701Z,9.17
2018-03-19T14:24:57.216Z,8.73
2018-03-19T14:27:25.123Z,8.67
2018-03-19T14:29:52.738Z,8.73
2018-03-19T14:32:20.244Z,9.67
2018-03-19T14:34:47.870Z,9.63
2018-03-19T14:37:15.380Z,9.63
2018-03-19T14:39:42.903Z,9.63
2018-03-19T14:42:10.413Z,9.03
2018-03-19T14:44:37.937Z,7.13
2018-03-19T14:47:05.465Z,7.23
2018-03-19T14:49:32.991Z,8.47
2018-03-19T14:52:00.524Z,9.03
2018-03-19T14:54:28.166Z,8.33
2018-03-19T14:56:55.718Z,8.17
2018-03-19T14:59:23.194Z,9.40
2018-03-19T15:01:50.813Z,8.57
2018-03-19T15:04:18.332Z,12.30
2018-03-19T15:06:45.853Z,8.63
2018-03-19T15:09:13.369Z,11.30
2018-03-19T15:11:40.958Z,10.33
2018-03-19T15:14:08.486Z,8.63
2018-03-19T15:16:35.999Z,10.00
2018-03-19T15:19:03.511Z,9.60
2018-03-19T15:21:31.034Z,7.83
2018-03-19T15:23:58.545Z,11.57
2018-03-19T15:26:26.047Z,7.97
2018-03-19T15:28:53.605Z,9.03
2018-03-19T15:31:21.242Z,9.67
2018-03-19T15:33:48.772Z,8.03
2018-03-19T15:36:16.284Z,10.77
2018-03-19T15:38:43.796Z,8.57
2018-03-19T15:41:11.303Z,10.33
2018-03-19T15:43:38.915Z,9.30
2018-03-19T15:46:06.496Z,12.40
2018-03-19T15:48:34.024Z,9.00
2018-03-19T15:51:01.550Z,11.40
2018-03-19T15:53:29.073Z,10.53
2018-03-19T15:55:56.583Z,7.90
2018-03-19T15:58:24.123Z,10.57
2018-03-19T16:00:51.636Z,8.77
2018-03-19T16:03:19.144Z,8.43
2018-03-19T16:05:46.888Z,7.53
2018-03-19T16:08:14.416Z,12.03
2018-03-19T16:10:41.953Z,7.83
2018-03-19T16:13:09.482Z,11.83
2018-03-19T16:15:36.991Z,9.27
2018-03-19T16:18:04.579Z,8.73
2018-03-19T16:20:32.127Z,8.67
2018-03-19T16:22:59.649Z,9.73
2018-03-19T16:25:27.253Z,8.47
2018-03-19T16:27:54.768Z,10.10
2018-03-19T16:30:22.298Z,9.43
2018-03-19T16:32:49.827Z,10.40
2018-03-19T16:35:17.342Z,9.70
2018-03-19T16:37:44.879Z,12.73
2018-03-19T16:40:12.497Z,11.27
2018-03-19T16:42:40.026Z,9.83
2018-03-19T16:45:07.536Z,10.13
2018-03-19T16:47:35.049Z,10.90
2018-03-19T16:50:02.703Z,14.20
2018-03-19T16:52:30.286Z,9.50
2018-03-19T16:54:57.801Z,10.73
2018-03-19T16:57:25.355Z,10.07
2018-03-19T16:59:52.975Z,10.13
2018-03-19T17:02:20.536Z,12.40
2018-03-19T17:04:48.162Z,12.37
2018-03-19T17:07:15.705Z,9.53
2018-03-19T17:09:43.252Z,11.33
2018-03-19T17:12:10.790Z,11.10
2018-03-19T17:14:38.306Z,9.77
2018-03-19T17:17:05.820Z,11.87
2018-03-19T17:19:33.334Z,9.40
2018-03-19T17:22:01.135Z,10.27
2018-03-19T17:24:28.688Z,8.77
2018-03-19T17:26:56.201Z,11.03
2018-03-19T17:29:23.725Z,8.63
2018-03-19T17:31:51.239Z,12.93
2018-03-19T17:34:18.742Z,9.97
2018-03-19T17:36:46.268Z,9.07
2018-03-19T17:39:13.849Z,11.60
2018-03-19T17:41:41.393Z,9.70
2018-03-19T17:44:08.911Z,12.50
2018-03-19T17:46:36.439Z,11.70
2018-03-19T17:49:03.977Z,11.80
2018-03-19T17:51:31.507Z,9.90
2018-03-19T17:53:59.020Z,11.27
2018-03-19T17:56:27.480Z,10.37
2018-03-19T17:58:54.997Z,13.73
2018-03-19T18:01:22.519Z,11.43
2018-03-19T18:03:50.149Z,11.30
2018-03-19T18:06:17.656Z,16.53
2018-03-19T18:08:45.166Z,13.63
2018-03-19T18:11:12.676Z,13.50
2018-03-19T18:13:40.284Z,10.70
2018-03-19T18:16:07.787Z,13.10
2018-03-19T18:18:35.404Z,14.40
2018-03-19T18:21:02.964Z,10.67
2018-03-19T18:23:30.494Z,11.33
2018-03-19T18:25:58.013Z,13.23
2018-03-19T18:28:25.522Z,15.40
2018-03-19T18:30:53.068Z,12.00
2018-03-19T18:33:20.688Z,18.50
2018-03-19T18:35:48.204Z,13.97
2018-03-19T18:38:15.734Z,13.13
2018-03-19T18:40:43.253Z,11.17
2018-03-19T18:43:10.771Z,11.77
2018-03-19T18:45:38.384Z,11.40
2018-03-19T18:48:05.905Z,11.37
2018-03-19T18:50:33.610Z,19.83
2018-03-19T18:53:01.124Z,20.30
2018-03-19T18:55:28.644Z,18.17
2018-03-19T18:57:56.161Z,20.13
2018-03-19T19:00:23.742Z,19.57
2018-03-19T19:02:51.311Z,14.47
2018-03-19T19:05:18.862Z,16.80
2018-03-19T19:07:46.384Z,16.80
2018-03-19T19:10:13.906Z,16.00
2018-03-19T19:12:41.424Z,18.10
2018-03-19T19:15:08.973Z,15.80
2018-03-19T19:17:36.492Z,16.47
2018-03-19T19:20:04.028Z,19.67
2018-03-19T19:22:31.577Z,16.17
2018-03-19T19:24:59.139Z,19.93
2018-03-19T19:27:26.695Z,19.27
2018-03-19T19:29:54.223Z,21.07
2018-03-19T19:32:21.736Z,16.77
2018-03-19T19:34:49.272Z,17.73
2018-03-19T19:37:16.787Z,20.83
2018-03-19T19:39:44.306Z,18.60
2018-03-19T19:42:11.822Z,14.97
2018-03-19T19:44:39.333Z,16.57
2018-03-19T19:47:06.969Z,14.03
2018-03-19T19:49:34.480Z,17.97
2018-03-19T19:52:02.011Z,16.92
2018-03-19T19:54:29.547Z,20.50
2018-03-19T19:56:57.106Z,19.50
2018-03-19T19:59:24.632Z,18.17
2018-03-19T20:01:52.173Z,16.43
2018-03-19T20:04:19.719Z,18.20
2018-03-19T20:06:47.278Z,18.27
2018-03-19T20:09:14.789Z,18.10
2018-03-19T20:11:42.329Z,20.27
2018-03-19T20:14:09.894Z,16.43
2018-03-19T20:16:37.493Z,21.30
2018-03-19T20:19:05.016Z,20.57
2018-03-19T20:21:32.625Z,20.57
2018-03-19T20:24:00.139Z,18.93
2018-03-19T20:26:27.671Z,19.67
2018-03-19T20:28:55.196Z,12.23
2018-03-19T20:31:22.709Z,14.97
2018-03-19T20:33:50.288Z,23.50
2018-03-19T20:36:17.811Z,15.73
2018-03-19T20:38:45.408Z,19.80
2018-03-19T20:41:12.919Z,17.70
2018-03-19T20:43:40.425Z,19.17
2018-03-19T20:46:07.944Z,18.97
2018-03-19T20:48:35.491Z,21.40
2018-03-19T20:51:03.016Z,18.07
2018-03-19T20:53:30.562Z,21.58
2018-03-19T20:55:58.125Z,18.93
2018-03-19T20:58:25.685Z,22.23
2018-03-19T21:00:53.204Z,19.50
2018-03-19T21:03:21.122Z,19.53
2018-03-19T21:05:48.681Z,17.40
2018-03-19T21:08:16.209Z,20.57
2018-03-19T21:10:43.733Z,17.80
2018-03-19T21:13:11.265Z,20.23
2018-03-19T21:15:38.821Z,20.63
2018-03-19T21:18:06.353Z,22.63
2018-03-19T21:20:33.946Z,24.47
2018-03-19T21:23:01.499Z,20.17
2018-03-19T21:25:29.029Z,21.37
2018-03-19T21:27:56.564Z,22.50
2018-03-19T21:30:24.108Z,17.93
2018-03-19T21:32:51.846Z,19.07
2018-03-19T21:35:19.431Z,18.03
2018-03-19T21:37:46.967Z,17.50
2018-03-19T21:40:14.500Z,19.97
2018-03-19T21:42:42.031Z,18.70
2018-03-19T21:45:09.590Z,20.17
2018-03-19T21:47:37.149Z,16.93
2018-03-19T21:50:04.689Z,18.80
2018-03-19T21:52:32.209Z,14.83
2018-03-19T21:54:59.742Z,21.50
2018-03-19T21:57:27.271Z,23.03
2018-03-19T21:59:54.802Z,19.40
2018-03-19T22:02:22.326Z,17.07
2018-03-19T22:04:49.898Z,17.70
2018-03-19T22:07:17.480Z,19.33
2018-03-19T22:09:44.998Z,17.67
2018-03-19T22:12:12.597Z,18.63
2018-03-19T22:14:40.212Z,24.13
2018-03-19T22:17:07.791Z,18.37
2018-03-19T22:19:35.353Z,16.40
2018-03-19T22:22:02.884Z,19.50
2018-03-19T22:24:30.425Z,14.77
2018-03-19T22:26:57.949Z,17.20
2018-03-19T22:29:25.460Z,18.03
2018-03-19T22:31:52.982Z,18.07
2018-03-19T22:34:20.493Z,17.37
2018-03-19T22:36:48.019Z,18.03
2018-03-19T22:39:15.646Z,18.47
2018-03-19T22:41:43.170Z,17.87
2018-03-19T22:44:10.764Z,19.40
2018-03-19T22:46:38.322Z,19.50
2018-03-19T22:49:05.838Z,20.27
2018-03-19T22:51:33.460Z,18.70
2018-03-19T22:54:00.971Z,20.10
2018-03-19T22:56:28.579Z,22.00
2018-03-19T22:58:56.094Z,23.20
2018-03-19T23:01:23.615Z,22.17
2018-03-19T23:03:51.136Z,20.43
2018-03-19T23:06:18.654Z,19.33
2018-03-19T23:08:46.176Z,20.30
2018-03-19T23:11:13.700Z,22.37
2018-03-19T23:13:41.228Z,21.77
2018-03-19T23:16:08.768Z,19.57
2018-03-19T23:18:36.311Z,20.83
2018-03-19T23:21:03.829Z,20.97
2018-03-19T23:23:31.361Z,22.07
2018-03-19T23:25:58.872Z,21.10
2018-03-19T23:28:26.400Z,21.87
2018-03-19T23:30:53.939Z,24.70
2018-03-19T23:33:21.467Z,20.63
2018-03-19T23:35:48.979Z,25.30
2018-03-19T23:38:16.528Z,21.67
2018-03-19T23:40:44.040Z,21.73
2018-03-19T23:43:11.580Z,19.13
2018-03-19T23:45:39.118Z,23.77
2018-03-19T23:48:06.725Z,26.63
2018-03-19T23:50:34.259Z,23.67
2018-03-19T23:53:01.785Z,21.77
2018-03-19T23:55:29.405Z,21.63
2018-03-19T23:57:56.937Z,26.67
